Latest Weather Observations for Tuggeranong

IDN60801

Issued at 6:04 pm EDT Sunday 1 February 2015 (issued every 30 minutes, with the page automatically refreshed every 10 minutes)

About weather observations | Map of weather stations | Latest weather observations for NSW | Other Formats
Station Details ID: 070339 Name: TUGGERANONG (ISABELLA PLAINS) AWS Lat: -35.42 Lon: 149.09 Height: 586.7 m
Data from the previous 72 hours. | See also: Recent months at Tuggeranong
Date/Time
EDT
Temp
°C
App
Temp
°C
Dew
Point
Rel
Hum
%
Delta-T
°C
Wind Press
QNH
hPa
Press
MSL
hPa
Rain
since 9 am
mm
Dir
 
Spd
km/h
Gust
km/h
Spd
kts
Gust
kts
01/05:30pm 16.4 17.3 15.1 92 0.8 SSE 4 9 2 5 1011.0 1008.2 9.0
01/05:00pm 16.3 16.2 14.0 86 1.3 SSW 7 9 4 5 1011.0 1008.2 8.8
01/04:30pm 15.7 15.1 13.5 87 1.3 ESE 9 13 5 7 1010.9 1008.1 8.8
01/04:00pm 15.3 13.4 13.0 86 1.3 SSE 15 20 8 11 1010.9 1008.1 8.4
01/03:30pm 19.8 17.0 10.0 53 5.4 SW 15 33 8 18 1010.1 1007.3 0.0
01/03:00pm 23.5 21.5 10.2 43 7.5 E 11 15 6 8 1009.8 1007.0 0.0
01/02:30pm 23.1 21.4 9.8 43 7.4 S 9 13 5 7 1010.0 1007.2 0.0
01/02:00pm 22.3 21.2 9.8 45 7.0 SE 6 11 3 6 1010.4 1007.5 0.0
01/01:30pm 21.9 20.2 9.8 46 6.7 SSW 9 15 5 8 1010.7 1007.8 0.0
01/01:00pm 20.9 19.2 9.8 49 6.1 W 9 13 5 7 1011.1 1008.3 0.0
01/12:30pm 19.8 18.3 8.5 48 6.1 NNE 6 11 3 6 1011.4 1008.6 0.0
01/12:00pm 19.7 18.3 9.6 52 5.5 ESE 7 13 4 7 1011.7 1008.9 0.0
01/11:30am 19.0 17.5 10.6 58 4.7 NE 9 13 5 7 1011.9 1009.1 0.0
01/11:00am 18.1 16.2 9.2 56 4.8 ESE 9 15 5 8 1012.2 1009.3 0.0
01/10:30am 17.3 15.6 9.7 61 4.1 SSW 9 13 5 7 1012.3 1009.3 0.0
01/10:00am 17.0 14.6 10.1 64 3.8 SSW 13 17 7 9 1011.9 1009.0 0.0
01/09:30am 16.9 15.3 10.1 64 3.7 SSE 9 17 5 9 1011.8 1008.9 0.0
01/09:00am 16.1 16.3 10.4 69 3.1 CALM 0 2 0 1 1011.7 1008.7 0.4
01/08:30am 15.0 15.2 10.4 74 2.5 CALM 0 0 0 0 1011.6 1008.6 0.4
01/08:00am 14.2 14.0 10.6 79 2.0 WNW 2 7 1 4 1011.4 1008.4 0.4
01/07:30am 13.6 13.8 10.6 82 1.6 CALM 0 0 0 0 1011.1 1008.1 0.4
01/07:00am 13.3 13.4 10.1 81 1.7 CALM 0 0 0 0 1011.0 1008.0 0.4
01/06:30am 13.2 12.1 10.0 81 1.7 WSW 6 7 3 4 1010.8 1007.8 0.4
01/06:00am 13.5 13.2 10.1 80 1.8 WNW 2 6 1 3 1010.7 1007.7 0.4
01/05:30am 13.7 13.4 10.1 79 1.9 WSW 2 6 1 3 1010.4 1007.4 0.4
01/05:00am 14.0 13.2 9.8 76 2.2 NW 4 7 2 4 1010.4 1007.4 0.4
01/04:30am 14.4 13.0 9.6 73 2.5 S 7 13 4 7 1010.1 1007.1 0.4
01/04:00am 13.5 13.6 10.3 81 1.7 CALM 0 0 0 0 1010.1 1007.1 0.4
01/03:30am 13.4 13.1 10.0 80 1.8 WNW 2 7 1 4 1010.3 1007.3 0.4
01/03:00am 13.3 12.9 9.9 80 1.8 NW 2 6 1 3 1010.5 1007.5 0.4
01/02:30am 13.8 13.0 9.6 76 2.2 E 4 11 2 6 1010.5 1007.5 0.4
01/02:00am 13.9 13.4 9.3 74 2.4 SW 2 6 1 3 1010.7 1007.7 0.4
01/01:30am 14.7 14.3 9.9 73 2.6 SSE 2 6 1 3 1010.6 1007.6 0.4
01/01:00am 14.9 13.2 9.9 72 2.7 S 9 11 5 6 1010.6 1007.6 0.4
01/12:30am 14.4 13.3 9.8 74 2.5 SW 6 9 3 5 1010.8 1007.8 0.4
01/12:00am 14.0 14.1 10.0 77 2.1 CALM 0 0 0 0 1010.8 1007.8 0.4
 
Date/Time
EDT
Temp
°C
App
Temp
°C
Dew
Point
Rel
Hum
%
Delta-T
°C
Wind Press
QNH
hPa
Press
MSL
hPa
Rain
since 9 am
mm
Dir
 
Spd
km/h
Gust
km/h
Spd
kts
Gust
kts
31/11:30pm 14.7 13.8 10.5 76 2.3 S 6 9 3 5 1010.7 1007.7 0.4
31/11:00pm 14.2 14.7 11.7 85 1.4 CALM 0 0 0 0 1011.1 1008.1 0.4
31/10:30pm 15.0 15.6 12.0 82 1.7 CALM 0 0 0 0 1011.0 1008.0 0.4
31/10:00pm 15.4 14.9 12.0 80 1.9 WSW 6 7 3 4 1010.8 1007.8 0.4
31/09:30pm 16.2 16.8 12.0 76 2.4 CALM 0 6 0 3 1010.4 1007.4 0.4
31/09:00pm 16.8 16.1 12.1 74 2.7 SSW 7 9 4 5 1010.0 1007.0 0.4
31/08:30pm 17.4 17.6 11.9 70 3.1 SSW 2 7 1 4 1009.8 1006.8 0.4
31/08:00pm 18.1 16.9 11.7 66 3.6 S 9 11 5 6 1009.5 1006.5 0.4
31/07:30pm 18.6 17.2 10.9 61 4.3 SSE 9 11 5 6 1009.0 1006.0 0.4
31/07:00pm 18.9 18.3 11.7 63 4.1 SE 6 9 3 5 1008.8 1005.8 0.4
31/06:30pm 18.1 17.9 13.6 75 2.6 WSW 7 11 4 6 1008.8 1005.8 0.2
31/05:30pm 20.2 18.8 9.7 51 5.8 SE 7 13 4 7 1008.0 1005.0 0.0
31/05:00pm 19.7 17.2 9.6 52 5.5 S 13 19 7 10 1008.1 1005.1 0.0
31/04:30pm 20.3 18.6 9.8 51 5.8 SW 9 13 5 7 1008.1 1005.1 0.0
31/04:00pm 20.3 18.2 9.8 51 5.8 SSW 11 17 6 9 1008.0 1005.0 0.0
31/03:30pm 21.2 19.5 9.8 48 6.3 SSW 9 15 5 8 1007.8 1004.8 0.0
31/03:00pm 20.8 19.1 8.4 45 6.7 SSW 7 11 4 6 1007.6 1004.6 0.0
31/02:30pm 21.0 18.9 8.3 44 6.8 SW 9 13 5 7 1007.6 1004.6 0.0
31/02:00pm 21.7 19.3 8.6 43 7.1 SW 11 24 6 13 1007.5 1004.5 0.0
31/01:30pm 22.4 19.6 8.5 41 7.6 WSW 13 22 7 12 1007.7 1004.7 0.0
31/01:00pm 20.6 18.6 7.2 42 7.1 NNW 7 15 4 8 1007.9 1004.9 0.0
31/12:30pm 21.1 19.6 8.4 44 6.9 NNE 6 11 3 6 1008.2 1005.2 0.0
31/12:00pm 20.0 17.8 8.0 46 6.4 SSE 9 15 5 8 1008.6 1005.5 0.0
31/11:30am 19.5 17.4 8.2 48 6.0 SSW 9 13 5 7 1009.0 1006.0 0.0
31/11:00am 18.6 16.9 7.7 49 5.7 S 6 13 3 7 1009.3 1006.3 0.0
31/10:30am 17.8 15.4 7.0 49 5.6 SSW 9 13 5 7 1009.4 1006.4 0.0
31/10:00am 17.5 14.9 7.8 53 5.1 SSW 11 17 6 9 1009.5 1006.5 0.0
31/09:30am 16.5 14.5 6.9 53 4.9 S 7 11 4 6 1009.5 1006.5 0.0
31/09:00am 16.0 14.1 7.5 57 4.4 S 7 11 4 6 1009.6 1006.6 0.0
31/08:30am 14.8 12.8 6.9 59 4.0 SSE 7 11 4 6 1009.6 1006.6 0.0
31/08:00am 13.7 11.7 7.2 65 3.3 WNW 7 9 4 5 1009.7 1006.7 0.0
31/07:30am 12.7 11.4 7.6 71 2.6 W 4 7 2 4 1009.3 1006.3 0.0
31/07:00am 12.0 10.3 7.5 74 2.3 NNW 6 7 3 4 1009.2 1006.2 0.0
31/06:30am 11.2 9.4 7.3 77 1.9 WNW 6 7 3 4 1009.0 1006.0 0.0
31/06:00am 11.0 9.2 7.3 78 1.8 W 6 7 3 4 1008.8 1005.8 0.0
31/05:30am 9.9 7.7 6.4 79 1.7 W 7 9 4 5 1008.7 1005.6 0.0
31/05:00am 10.7 9.4 6.1 73 2.2 WSW 2 7 1 4 1008.5 1005.4 0.0
31/04:30am 12.0 9.8 6.1 67 2.9 S 7 13 4 7 1008.4 1005.3 0.0
31/04:00am 12.2 9.3 6.5 68 2.8 S 11 20 6 11 1008.6 1005.5 0.0
31/03:30am 12.3 9.7 6.1 66 3.0 S 9 19 5 10 1008.9 1005.9 0.0
31/03:00am 12.3 10.2 6.6 68 2.8 S 7 13 4 7 1009.1 1006.1 0.0
31/02:30am 12.4 9.1 6.5 67 2.9 SSE 13 22 7 12 1009.3 1006.3 0.0
31/02:00am 12.7 9.4 6.5 66 3.1 SSE 13 20 7 11 1009.4 1006.4 0.0
31/01:30am 12.8 9.6 6.8 67 3.0 S 13 24 7 13 1009.6 1006.6 0.0
31/01:00am 13.1 9.9 6.9 66 3.1 SSE 13 20 7 11 1009.7 1006.7 0.0
31/12:30am 13.4 10.5 6.7 64 3.3 S 11 17 6 9 1009.9 1006.9 0.0
31/12:00am 13.6 10.0 6.7 63 3.4 S 15 22 8 12 1010.0 1007.0 0.0
 
Date/Time
EDT
Temp
°C
App
Temp
°C
Dew
Point
Rel
Hum
%
Delta-T
°C
Wind Press
QNH
hPa
Press
MSL
hPa
Rain
since 9 am
mm
Dir
 
Spd
km/h
Gust
km/h
Spd
kts
Gust
kts
30/11:30pm 13.3 10.9 6.9 65 3.2 SSE 9 17 5 9 1010.0 1007.0 0.0
30/11:00pm 13.6 10.9 7.2 65 3.2 S 11 20 6 11 1010.3 1007.3 0.0
30/10:30pm 14.3 10.7 6.9 61 3.7 S 15 26 8 14 1010.1 1007.1 0.0
30/10:00pm 14.8 11.2 6.6 58 4.1 SSE 15 26 8 14 1010.1 1007.1 0.0
30/09:30pm 15.0 12.2 6.8 58 4.1 SSE 11 17 6 9 1010.1 1007.1 0.0
30/09:00pm 15.3 12.9 6.8 57 4.3 SSE 9 17 5 9 1009.8 1006.8 0.0
30/08:30pm 15.6 12.3 6.6 55 4.5 SSE 13 22 7 12 1009.4 1006.4 0.0
30/08:00pm 16.2 12.3 6.9 54 4.7 SE 17 28 9 15 1009.2 1006.2 0.0
30/07:30pm 17.2 13.8 7.8 54 4.9 SSE 15 24 8 13 1008.9 1005.9 0.0
30/07:00pm 18.1 14.8 6.6 47 5.9 SSE 13 26 7 14 1008.8 1005.8 0.0
30/06:30pm 18.5 14.4 6.0 44 6.3 SSE 17 26 9 14 1008.7 1005.6 0.0
30/06:00pm 19.2 16.9 7.3 46 6.2 SSW 9 19 5 10 1008.5 1005.4 0.0
30/05:30pm 17.9 15.2 9.0 56 4.8 SSW 13 19 7 10 1008.6 1005.5 0.0
30/05:00pm 18.5 15.0 8.7 53 5.3 SW 17 26 9 14 1008.5 1005.4 0.0
30/04:30pm 19.8 16.5 6.5 42 6.9 S 13 22 7 12 1008.6 1005.5 0.0
30/04:00pm 20.0 17.1 6.7 42 6.9 SSW 11 17 6 9 1008.6 1005.5 0.0
30/03:30pm 19.4 15.9 5.5 40 7.0 SSW 13 24 7 13 1008.7 1005.6 0.0
30/03:00pm 19.7 17.4 5.7 40 7.1 W 7 13 4 7 1008.8 1005.8 0.0
30/02:30pm 18.8 16.2 6.0 43 6.5 W 9 11 5 6 1009.2 1006.2 0.0
30/02:00pm 19.0 16.7 5.8 42 6.7 WSW 7 13 4 7 1009.4 1006.4 0.0
30/01:30pm 19.7 16.8 6.4 42 6.9 SW 11 17 6 9 1009.6 1006.6 0.0
30/01:00pm 19.1 14.9 5.6 41 6.8 SW 17 28 9 15 1009.8 1006.8 0.0
30/12:30pm 18.6 15.1 5.5 42 6.6 SSW 13 20 7 11 1010.0 1007.0 0.0
30/12:00pm 18.7 14.5 5.9 43 6.5 SSE 17 28 9 15 1010.4 1007.4 0.0
30/11:30am 18.0 14.5 5.6 44 6.2 SE 13 20 7 11 1010.9 1007.9 0.0
30/11:00am 17.3 14.4 6.5 49 5.5 S 11 17 6 9 1011.1 1008.1 0.0
30/10:30am 16.1 11.8 5.4 49 5.3 S 17 28 9 15 1011.4 1008.4 0.0
30/10:00am 14.9 10.9 5.1 52 4.8 SSE 15 22 8 12 1011.6 1008.6 0.0
30/09:30am 14.4 10.1 5.2 54 4.5 S 17 28 9 15 1011.6 1008.6 0.0
30/09:00am 14.6 9.8 5.4 54 4.5 SSW 20 32 11 17 1011.8 1008.9 0.0
30/08:30am 12.7 10.0 5.6 62 3.4 SSE 9 15 5 8 1011.8 1008.9 0.0
30/08:00am 12.2 10.4 5.6 64 3.2 SE 4 11 2 6 1011.7 1008.7 0.0
30/07:30am 11.6 9.0 5.9 68 2.8 SSW 9 19 5 10 1011.4 1008.4 0.0
30/07:00am 9.8 7.5 5.0 72 2.2 N 6 9 3 5 1011.3 1008.3 0.0
30/06:30am 10.5 7.6 4.6 67 2.7 SE 9 13 5 7 1011.2 1008.2 0.0
30/06:00am 10.2 7.7 4.6 68 2.6 SSE 7 13 4 7 1010.9 1007.9 0.0
30/05:30am 10.4 7.5 4.5 67 2.7 S 9 20 5 11 1011.0 1008.0 0.0
30/05:00am 10.0 7.6 4.2 67 2.7 SE 6 11 3 6 1011.2 1008.2 0.0
30/04:30am 10.5 7.6 4.6 67 2.7 W 9 13 5 7 1011.4 1008.4 0.0
30/04:00am 10.7 7.8 4.6 66 2.8 SSE 9 17 5 9 1011.4 1008.4 0.0
30/03:30am 11.0 7.4 4.9 66 2.9 SSW 13 22 7 12 1011.7 1008.7 0.0
30/03:00am 10.8 8.3 4.7 66 2.9 SSW 7 13 4 7 1012.1 1009.1 0.0
30/02:30am 11.0 8.7 4.7 65 2.9 W 6 11 3 6 1012.4 1009.4 0.0
30/02:00am 11.2 8.7 4.9 65 3.0 SSE 7 17 4 9 1012.6 1009.6 0.0
30/01:30am 11.4 9.2 5.5 67 2.8 NE 6 9 3 5 1012.7 1009.7 0.0
30/01:00am 11.6 8.5 5.7 67 2.8 SSW 11 17 6 9 1013.1 1010.1 0.0
30/12:30am 11.6 8.5 5.7 67 2.8 S 11 19 6 10 1013.3 1010.4 0.0
30/12:00am 11.6 8.9 5.7 67 2.8 S 9 15 5 8 1013.7 1010.8 0.0
 
Date/Time
EDT
Temp
°C
App
Temp
°C
Dew
Point
Rel
Hum
%
Delta-T
°C
Wind Press
QNH
hPa
Press
MSL
hPa
Rain
since 9 am
mm
Dir
 
Spd
km/h
Gust
km/h
Spd
kts
Gust
kts
29/11:30pm 12.0 9.4 5.9 66 3.0 S 9 19 5 10 1014.2 1011.2 0.0
29/11:00pm 12.0 9.4 6.1 67 2.9 S 9 20 5 11 1014.3 1011.3 0.0
29/10:30pm 12.5 9.7 6.8 68 2.8 SSE 11 20 6 11 1014.5 1011.5 0.0
29/10:00pm 13.0 9.8 7.0 67 3.0 S 13 20 7 11 1014.4 1011.4 0.0
29/09:30pm 13.5 10.7 6.8 64 3.3 SSE 11 17 6 9 1014.6 1011.6 0.0
29/09:00pm 13.9 11.0 6.7 62 3.6 SSE 11 22 6 12 1014.3 1011.3 0.0
29/08:30pm 14.4 10.7 6.3 58 4.0 S 15 22 8 12 1014.2 1011.2 0.0
29/08:00pm 15.0 9.9 5.8 54 4.5 S 22 32 12 17 1014.0 1011.0 0.0
29/07:30pm 15.7 11.1 6.4 54 4.7 SSE 20 30 11 16 1013.6 1010.7 0.0
29/07:00pm 16.7 10.4 5.9 49 5.4 S 28 37 15 20 1013.2 1010.2 0.0
29/06:30pm 17.9 11.7 6.1 46 6.0 SSE 28 43 15 23 1012.7 1009.7 0.0

Other Formats:

Comma delimited format used in spreadsheet applications
http://www.bom.gov.au/fwo/IDN60801/IDN60801.94925.axf

JavaScript Object Notation format (JSON) in row-major order
http://www.bom.gov.au/fwo/IDN60801/IDN60801.94925.json